Time;durP1;ratioP1;P1;durP2;ratioP2;P2;SDS_P1;SDS_P2;PMS_P1;PMS_P2;Temp;Humidity;BMP_temperature;BMP_pressure;BME280_temperature;BME280_humidity;BME280_pressure;Samples;Min_cycle;Max_cycle;Signal;HPM_P1;HPM_P2
2022/07/17 00:00:55;;;;;;;24.08;16.58;;;;;;;19.97;65.38;100034.13;5074578;28;20178;-85
2022/07/17 00:03:21;;;;;;;21.73;17.02;;;;;;;19.91;65.60;100051.00;5070819;28;20522;-87
2022/07/17 00:05:47;;;;;;;23.60;17.88;;;;;;;20.00;65.49;100060.28;5073856;28;20111;-87
2022/07/17 00:08:13;;;;;;;21.60;15.88;;;;;;;19.96;65.12;100059.97;5073957;28;20052;-87
2022/07/17 00:10:41;;;;;;;23.02;15.45;;;;;;;19.90;65.18;100060.84;5074192;28;20105;-87
2022/07/17 00:13:07;;;;;;;25.38;17.52;;;;;;;19.93;66.27;100062.28;5074398;28;20024;-88
2022/07/17 00:15:33;;;;;;;22.98;17.02;;;;;;;19.95;66.52;100068.19;5074102;28;20044;-87
2022/07/17 00:17:59;;;;;;;26.63;17.90;;;;;;;19.91;66.58;100073.16;5074106;28;20398;-87
2022/07/17 00:20:25;;;;;;;24.80;17.33;;;;;;;19.90;65.80;100066.16;5075308;28;20120;-88
2022/07/17 00:22:54;;;;;;;24.48;17.38;;;;;;;19.88;64.54;100067.47;5073785;28;20095;-87
2022/07/17 00:25:20;;;;;;;22.80;16.48;;;;;;;19.87;64.56;100066.63;5072135;28;20029;-87
2022/07/17 00:27:49;;;;;;;22.13;16.23;;;;;;;19.85;64.30;100060.72;5075522;28;20034;-86
2022/07/17 00:30:17;;;;;;;21.80;15.73;;;;;;;19.81;64.10;100056.91;5073060;28;20059;-85
2022/07/17 00:32:44;;;;;;;24.15;16.90;;;;;;;19.80;63.90;100061.41;5074850;28;20048;-85
2022/07/17 00:35:13;;;;;;;20.75;15.60;;;;;;;19.73;64.45;100067.88;5076043;28;20024;-84
2022/07/17 00:37:45;;;;;;;21.58;15.27;;;;;;;19.72;65.17;100075.09;5076267;28;20074;-85
2022/07/17 00:40:17;;;;;;;22.55;15.40;;;;;;;19.65;65.94;100072.53;5074753;28;20033;-86
2022/07/17 00:42:42;;;;;;;22.48;15.73;;;;;;;19.58;67.17;100079.81;5074554;28;20037;-85
2022/07/17 00:45:10;;;;;;;22.73;16.63;;;;;;;19.55;67.35;100080.25;5075952;28;20032;-84
2022/07/17 00:47:58;;;;;;;24.00;16.83;;;;;;;19.53;67.56;100072.50;5076611;28;20493;-85
2022/07/17 00:50:29;;;;;;;21.08;16.25;;;;;;;19.49;68.02;100071.34;5075891;28;20036;-85
2022/07/17 00:52:55;;;;;;;26.40;17.77;;;;;;;19.47;68.74;100062.78;5074651;28;20080;-85
2022/07/17 00:55:22;;;;;;;26.85;18.58;;;;;;;19.43;69.50;100061.59;5076235;28;20035;-85
2022/07/17 00:57:49;;;;;;;24.20;17.23;;;;;;;19.45;69.71;100069.34;5073617;28;20024;-87
2022/07/17 01:00:16;;;;;;;24.92;18.35;;;;;;;19.41;69.71;100055.69;5075232;28;20112;-86
2022/07/17 01:02:50;;;;;;;24.95;17.30;;;;;;;19.47;69.55;100061.94;5073310;28;20024;-86
2022/07/17 01:05:17;;;;;;;22.45;17.50;;;;;;;19.38;68.83;100058.81;5053509;28;20055;-85
2022/07/17 01:07:44;;;;;;;23.92;16.73;;;;;;;19.40;68.66;100064.72;5073995;28;20440;-86
2022/07/17 01:10:13;;;;;;;24.95;16.27;;;;;;;19.37;68.85;100057.19;5075847;28;20032;-85
2022/07/17 01:12:41;;;;;;;22.15;15.38;;;;;;;19.33;69.10;100061.34;5075060;28;20070;-86
2022/07/17 01:15:09;;;;;;;22.70;15.73;;;;;;;19.35;69.01;100062.72;5076352;28;20046;-87
2022/07/17 01:17:35;;;;;;;20.40;14.88;;;;;;;19.33;69.42;100061.34;5073503;28;20111;-87
2022/07/17 01:20:03;;;;;;;21.45;15.63;;;;;;;19.25;69.70;100057.94;5073409;28;20134;-86
2022/07/17 01:22:28;;;;;;;20.52;15.30;;;;;;;19.26;70.18;100050.78;5070439;28;20474;-85
2022/07/17 01:24:54;;;;;;;23.00;15.48;;;;;;;19.20;70.62;100044.53;5072888;28;20027;-87
2022/07/17 01:27:20;;;;;;;25.13;16.85;;;;;;;19.12;71.43;100037.66;5068334;28;20047;-85
2022/07/17 01:29:48;;;;;;;22.83;17.40;;;;;;;19.11;71.62;100027.25;5073032;28;20124;-86
2022/07/17 01:32:13;;;;;;;22.58;16.90;;;;;;;19.11;71.98;100040.56;5071735;28;20037;-83
2022/07/17 01:34:40;;;;;;;22.35;16.83;;;;;;;19.15;71.84;100038.25;5072292;28;20047;-86
2022/07/17 01:37:08;;;;;;;21.92;16.20;;;;;;;19.10;71.87;100046.94;5070224;28;20028;-85
2022/07/17 01:42:21;;;;;;;23.10;16.55;;;;;;;19.05;72.09;100044.94;5072658;28;20035;-86
2022/07/17 01:44:47;;;;;;;21.85;16.15;;;;;;;19.03;72.26;100041.69;5072127;28;20029;-86
2022/07/17 01:47:16;;;;;;;21.75;16.42;;;;;;;19.04;72.61;100047.81;5074390;28;20040;-87
2022/07/17 01:49:48;;;;;;;21.88;16.65;;;;;;;18.99;72.66;100043.19;5073105;28;20025;-88
2022/07/17 01:52:14;;;;;;;23.45;16.23;;;;;;;18.93;72.69;100052.84;5071783;28;20067;-87
2022/07/17 01:54:41;;;;;;;20.85;16.05;;;;;;;18.94;72.82;100043.81;5073322;28;20041;-87
2022/07/17 01:57:08;;;;;;;20.20;15.93;;;;;;;18.88;73.12;100036.75;5073524;28;20025;-86
2022/07/17 01:59:33;;;;;;;19.95;15.65;;;;;;;18.89;73.16;100033.06;5072079;28;20119;-88
2022/07/17 02:01:59;;;;;;;22.67;15.20;;;;;;;18.89;72.88;100037.56;5071355;28;20495;-87
2022/07/17 02:04:25;;;;;;;20.80;16.25;;;;;;;18.84;73.06;100022.25;5071119;28;20028;-85
2022/07/17 02:06:54;;;;;;;21.67;15.25;;;;;;;18.88;73.20;100027.94;5073876;28;20038;-87
2022/07/17 02:09:22;;;;;;;22.52;15.52;;;;;;;18.89;73.33;100032.22;5080868;28;20029;-86
2022/07/17 02:11:48;;;;;;;22.25;15.95;;;;;;;18.91;73.41;100036.31;5081733;28;20493;-87
2022/07/17 02:14:14;;;;;;;21.27;16.20;;;;;;;18.98;73.22;100023.75;5080398;28;20487;-88
2022/07/17 02:16:40;;;;;;;21.85;15.70;;;;;;;19.05;73.46;100030.81;5065838;28;20028;-85
2022/07/17 02:19:05;;;;;;;27.90;17.00;;;;;;;19.17;73.46;100031.66;5085055;28;20032;-86
2022/07/17 02:21:31;;;;;;;25.95;17.45;;;;;;;19.25;73.41;100028.66;5088606;28;20028;-87
2022/07/17 02:23:57;;;;;;;23.65;16.70;;;;;;;19.31;73.13;100021.63;5083132;28;20743;-86
2022/07/17 02:26:22;;;;;;;28.42;17.73;;;;;;;19.41;72.99;100021.06;5086662;28;20028;-85
2022/07/17 02:28:48;;;;;;;24.65;15.48;;;;;;;19.44;73.11;100009.16;5078182;28;20086;-86
2022/07/17 02:31:13;;;;;;;26.30;16.52;;;;;;;19.54;73.33;100004.06;5074565;28;20117;-86
2022/07/17 02:33:39;;;;;;;25.02;16.15;;;;;;;19.62;73.62;100002.91;5074295;28;20031;-88
2022/07/17 02:36:05;;;;;;;21.98;15.23;;;;;;;19.62;73.73;100000.25;5073172;28;20119;-86
2022/07/17 02:38:31;;;;;;;22.25;15.50;;;;;;;19.70;73.69;99997.25;5072305;28;20036;-86
2022/07/17 02:40:58;;;;;;;23.63;16.15;;;;;;;19.72;73.81;99995.19;5072740;28;20511;-86
2022/07/17 02:43:23;;;;;;;25.65;15.90;;;;;;;19.74;73.32;100001.09;5070651;28;20056;-87
2022/07/17 02:45:49;;;;;;;24.75;16.27;;;;;;;19.73;73.28;99995.97;5072579;28;20485;-89
2022/07/17 02:48:14;;;;;;;20.27;14.77;;;;;;;19.78;73.28;100006.75;5071093;28;20044;-87
2022/07/17 02:50:40;;;;;;;21.85;15.40;;;;;;;19.80;73.24;100000.16;5072244;28;20039;-86
2022/07/17 02:53:09;;;;;;;23.88;16.15;;;;;;;19.85;73.05;100010.13;5067597;28;20039;-86
2022/07/17 02:55:35;;;;;;;23.85;16.35;;;;;;;19.88;72.63;100009.66;5071486;28;20025;-86
2022/07/17 02:58:02;;;;;;;23.65;15.18;;;;;;;19.97;72.52;100010.97;5069987;28;20063;-87
2022/07/17 03:00:28;;;;;;;24.30;16.02;;;;;;;20.00;72.40;100017.66;5069900;28;20123;-87
2022/07/17 03:02:55;;;;;;;24.40;16.10;;;;;;;20.04;72.18;100013.47;5070416;28;20028;-88
2022/07/17 03:05:24;;;;;;;22.65;16.42;;;;;;;20.05;71.64;100006.31;5073471;28;20375;-87
2022/07/17 03:07:50;;;;;;;22.90;16.38;;;;;;;20.12;71.26;100007.81;5072483;28;20532;-85
2022/07/17 03:10:15;;;;;;;23.88;16.45;;;;;;;20.20;70.71;99995.97;5071283;28;20029;-86
2022/07/17 03:12:42;;;;;;;22.75;15.95;;;;;;;20.26;71.17;99968.38;5074821;28;20032;-86
2022/07/17 03:15:08;;;;;;;20.88;15.35;;;;;;;20.27;71.50;99963.88;5073736;28;20377;-87
2022/07/17 03:17:34;;;;;;;20.92;14.50;;;;;;;20.30;71.07;99968.72;5074611;28;20043;-87
2022/07/17 03:20:00;;;;;;;21.50;14.32;;;;;;;20.26;71.02;99962.25;5071604;28;20113;-86
2022/07/17 03:22:26;;;;;;;22.02;14.98;;;;;;;20.27;71.32;99971.84;5070591;28;20044;-88
2022/07/17 03:24:51;;;;;;;18.50;14.57;;;;;;;20.32;70.45;99981.78;5072308;28;20274;-86
2022/07/17 03:27:17;;;;;;;17.63;14.20;;;;;;;20.37;70.24;99980.03;5074701;28;20029;-87
2022/07/17 03:29:43;;;;;;;18.25;14.27;;;;;;;20.45;70.66;99964.75;5073839;28;20028;-87
2022/07/17 03:32:10;;;;;;;21.58;14.52;;;;;;;20.46;70.99;99955.69;5074153;28;20165;-86
2022/07/17 03:34:36;;;;;;;21.38;15.38;;;;;;;20.39;72.34;99948.63;5075707;28;20032;-86
2022/07/17 03:37:03;;;;;;;18.77;14.15;;;;;;;20.41;70.93;99964.41;5075905;28;20032;-86
2022/07/17 03:39:30;;;;;;;23.58;15.45;;;;;;;20.41;70.61;99991.84;5075229;28;22072;-87
2022/07/17 03:41:56;;;;;;;22.58;14.57;;;;;;;20.48;69.72;99985.59;5071488;28;20033;-87
2022/07/17 03:44:22;;;;;;;23.35;15.70;;;;;;;20.48;69.83;99958.94;5074407;28;20371;-87
2022/07/17 03:46:47;;;;;;;19.75;13.88;;;;;;;20.59;69.58;99960.72;5057553;28;20055;-86
2022/07/17 03:49:13;;;;;;;19.48;14.23;;;;;;;20.62;70.39;99956.78;5074505;28;20042;-87
2022/07/17 03:51:39;;;;;;;18.33;13.10;;;;;;;20.63;70.45;99969.06;5072664;28;20032;-86
2022/07/17 03:54:05;;;;;;;17.30;13.05;;;;;;;20.66;70.74;99961.41;5073704;28;20031;-86
2022/07/17 03:56:34;;;;;;;17.92;12.55;;;;;;;20.66;70.90;99956.06;5070021;28;20538;-86
2022/07/17 03:59:00;;;;;;;17.60;12.75;;;;;;;20.66;70.91;99949.91;5072780;28;20039;-87
2022/07/17 04:01:25;;;;;;;17.27;12.63;;;;;;;20.68;71.42;99959.31;5074217;28;20040;-86
2022/07/17 04:03:51;;;;;;;17.42;13.05;;;;;;;20.68;71.15;99972.66;5075221;28;20032;-86
2022/07/17 04:06:19;;;;;;;18.67;13.30;;;;;;;20.67;70.68;99968.34;5073346;28;20029;-85
2022/07/17 04:08:46;;;;;;;21.33;14.73;;;;;;;20.73;70.67;99971.91;5076021;28;20021;-86
2022/07/17 04:11:12;;;;;;;22.92;15.18;;;;;;;20.78;70.78;99968.53;5074842;28;20040;-85
2022/07/17 04:13:41;;;;;;;24.15;16.58;;;;;;;20.78;70.33;99964.00;5074908;28;20103;-88
2022/07/17 04:16:13;;;;;;;20.98;15.40;;;;;;;20.82;69.54;99967.03;5074348;28;20063;-84
2022/07/17 04:18:39;;;;;;;20.77;15.55;;;;;;;20.87;69.40;99972.47;5071810;28;20040;-86
2022/07/17 04:21:09;;;;;;;19.45;15.32;;;;;;;20.92;69.53;99969.88;5073189;28;20051;-87
2022/07/17 04:23:35;;;;;;;22.58;15.15;;;;;;;21.02;69.40;99973.75;5072370;28;20049;-86
2022/07/17 04:26:01;;;;;;;17.33;12.77;;;;;;;21.02;69.37;99973.75;5075263;28;20510;-86
2022/07/17 04:28:27;;;;;;;18.30;14.60;;;;;;;21.06;69.02;99982.94;5075708;28;20045;-85
2022/07/17 04:30:52;;;;;;;20.67;14.65;;;;;;;21.12;68.88;99989.97;5075358;28;20036;-87
2022/07/17 04:33:18;;;;;;;22.80;14.55;;;;;;;21.17;68.94;99992.72;5074375;28;20040;-86
2022/07/17 04:35:44;;;;;;;18.67;13.73;;;;;;;21.20;68.65;99976.22;5075015;28;20036;-88
2022/07/17 04:38:11;;;;;;;17.85;13.77;;;;;;;21.22;69.21;99974.13;5074350;28;20082;-84
2022/07/17 04:40:38;;;;;;;17.73;13.40;;;;;;;21.21;69.42;99958.34;5072236;28;20090;-85
2022/07/17 04:43:04;;;;;;;18.17;13.30;;;;;;;21.20;69.13;99944.16;5072748;28;20402;-86
2022/07/17 04:45:30;;;;;;;21.90;13.90;;;;;;;21.28;69.50;99942.16;5073761;28;20029;-85
2022/07/17 04:47:57;;;;;;;17.30;12.70;;;;;;;21.35;69.32;99942.81;5073256;28;20040;-84
2022/07/17 04:50:23;;;;;;;17.65;13.25;;;;;;;21.32;70.21;99941.44;5074518;28;20036;-85
2022/07/17 04:52:49;;;;;;;21.88;14.50;;;;;;;21.28;69.91;99955.53;5073586;28;20115;-84
2022/07/17 04:55:15;;;;;;;17.23;13.32;;;;;;;21.29;69.75;99967.81;5072344;28;20120;-87
2022/07/17 04:57:41;;;;;;;19.42;14.80;;;;;;;21.20;69.38;99965.53;5070879;28;20335;-85
2022/07/17 05:00:09;;;;;;;19.90;13.93;;;;;;;21.37;68.88;99959.38;5073151;28;20036;-85
2022/07/17 05:02:34;;;;;;;20.02;13.80;;;;;;;21.44;69.43;99949.38;5071399;28;20063;-86
2022/07/17 05:05:00;;;;;;;19.02;13.65;;;;;;;21.44;69.27;99943.19;5073336;28;20021;-86
2022/07/17 05:07:26;;;;;;;18.98;13.95;;;;;;;21.50;69.45;99937.69;5073925;28;20051;-87
2022/07/17 05:09:52;;;;;;;19.35;13.60;;;;;;;21.47;71.70;99938.19;5073754;28;20036;-86
2022/07/17 05:12:18;;;;;;;20.60;13.65;;;;;;;21.45;74.54;99934.94;5075212;28;20042;-85
2022/07/17 05:14:44;;;;;;;21.42;15.25;;;;;;;21.41;81.41;99949.81;5072832;28;20044;-86
2022/07/17 05:17:09;;;;;;;24.02;14.73;;;;;;;21.28;79.06;99968.88;5067811;28;20039;-86
2022/07/17 05:19:35;;;;;;;23.48;15.18;;;;;;;21.05;81.82;99971.44;5073427;28;20032;-87
2022/07/17 05:22:01;;;;;;;19.20;14.30;;;;;;;21.35;81.48;99974.84;5073811;28;20435;-87
2022/07/17 05:24:27;;;;;;;20.70;15.02;;;;;;;21.43;81.27;99986.97;5072523;28;20114;-87
2022/07/17 05:26:52;;;;;;;21.45;14.77;;;;;;;21.55;81.20;99979.69;5072413;28;20079;-84
2022/07/17 05:29:18;;;;;;;18.27;13.88;;;;;;;21.61;80.99;99981.38;5071128;28;20033;-84
2022/07/17 05:31:43;;;;;;;18.35;13.02;;;;;;;21.69;80.74;99990.88;5072643;28;20044;-85
2022/07/17 05:34:09;;;;;;;19.35;13.80;;;;;;;21.72;80.51;99987.72;5072709;28;20104;-85
2022/07/17 05:36:35;;;;;;;17.83;13.40;;;;;;;21.73;79.62;99978.66;5071908;28;20039;-85
2022/07/17 05:39:00;;;;;;;19.67;14.05;;;;;;;21.77;81.59;99965.59;5071815;28;20045;-85
2022/07/17 05:41:26;;;;;;;17.05;13.40;;;;;;;21.77;82.64;99968.28;5101744;28;20043;-85
2022/07/17 05:43:51;;;;;;;19.10;14.27;;;;;;;21.65;79.89;99981.75;5105161;28;20045;-85
2022/07/17 05:46:17;;;;;;;17.70;13.70;;;;;;;21.76;80.25;99993.38;5072521;28;20036;-86
2022/07/17 05:48:42;;;;;;;18.60;13.68;;;;;;;21.73;80.77;99986.66;5072140;28;20045;-85
2022/07/17 05:51:08;;;;;;;15.82;12.93;;;;;;;21.79;79.53;99983.00;5070701;28;20033;-87
2022/07/17 05:53:33;;;;;;;16.90;12.43;;;;;;;21.86;80.19;99993.50;5071862;28;20394;-85
2022/07/17 05:55:59;;;;;;;17.60;13.48;;;;;;;22.00;80.04;99999.31;5071261;28;20040;-86
2022/07/17 05:58:25;;;;;;;18.15;13.10;;;;;;;22.08;80.38;100000.75;5071096;28;20032;-86
2022/07/17 06:00:51;;;;;;;16.17;13.45;;;;;;;22.25;79.10;100008.75;5071959;28;20039;-85
2022/07/17 06:03:17;;;;;;;16.45;12.13;;;;;;;22.47;78.58;100007.97;5071976;28;20055;-86
2022/07/17 06:05:42;;;;;;;17.05;12.77;;;;;;;22.63;78.56;100007.06;5069560;28;20036;-85
2022/07/17 06:08:08;;;;;;;17.20;12.43;;;;;;;22.75;77.26;100000.75;5074284;28;20036;-85
2022/07/17 06:10:33;;;;;;;17.75;12.63;;;;;;;22.79;76.05;99994.66;5074958;28;20064;-85
2022/07/17 06:12:59;;;;;;;18.48;12.27;;;;;;;22.97;76.25;99995.34;5071524;28;20107;-86
2022/07/17 06:15:25;;;;;;;19.33;12.20;;;;;;;23.22;75.57;99996.63;5069982;28;20080;-85
2022/07/17 06:17:51;;;;;;;16.45;12.30;;;;;;;23.31;75.57;99994.31;5071788;28;20036;-85
2022/07/17 06:20:18;;;;;;;16.55;12.68;;;;;;;23.42;75.24;100004.06;5071980;28;20471;-86
2022/07/17 06:22:45;;;;;;;15.98;12.50;;;;;;;23.36;71.90;100000.53;5069521;28;20085;-85
2022/07/17 06:25:11;;;;;;;18.00;12.73;;;;;;;23.66;72.70;100001.00;5069420;28;20108;-85
2022/07/17 06:27:41;;;;;;;18.45;12.95;;;;;;;23.76;72.97;100000.25;5071497;28;20513;-86
2022/07/17 06:30:11;;;;;;;16.55;12.35;;;;;;;23.86;71.60;100002.19;5070989;28;20093;-84
2022/07/17 06:32:37;;;;;;;16.40;12.70;;;;;;;23.80;73.13;99996.81;5070136;28;20429;-85
2022/07/17 06:35:03;;;;;;;16.10;11.88;;;;;;;24.06;74.12;99999.66;5048669;28;20048;-85
2022/07/17 06:37:29;;;;;;;17.48;13.23;;;;;;;24.17;74.55;99988.97;5075702;28;20024;-84
2022/07/17 06:39:55;;;;;;;16.55;12.80;;;;;;;24.16;74.02;99992.72;5079408;28;20036;-89
2022/07/17 06:42:21;;;;;;;19.25;14.70;;;;;;;24.26;73.98;100000.81;5075756;28;20048;-86
2022/07/17 06:44:46;;;;;;;18.13;13.27;;;;;;;24.39;74.76;99989.59;5068147;28;20029;-83
2022/07/17 06:47:12;;;;;;;15.07;13.23;;;;;;;24.53;73.96;99997.13;5066782;28;20035;-82
2022/07/17 06:49:37;;;;;;;17.65;13.60;;;;;;;24.70;74.66;100004.16;5068283;28;20074;-83
2022/07/17 06:52:03;;;;;;;19.15;13.18;;;;;;;24.84;74.32;100002.63;5070874;28;20041;-83
2022/07/17 06:54:28;;;;;;;18.02;12.45;;;;;;;24.96;73.74;100005.03;5069006;28;20048;-82
2022/07/17 06:56:54;;;;;;;14.40;11.20;;;;;;;25.05;70.71;99998.06;5071534;28;20041;-82
2022/07/17 06:59:20;;;;;;;15.93;11.43;;;;;;;25.26;70.67;99997.25;5073818;28;20044;-81
2022/07/17 07:01:46;;;;;;;12.80;10.50;;;;;;;25.39;70.19;100008.25;5070595;28;20147;-83
2022/07/17 07:04:11;;;;;;;13.48;10.55;;;;;;;25.40;69.15;100003.72;5075089;28;20040;-83
2022/07/17 07:06:37;;;;;;;14.80;10.85;;;;;;;25.53;68.89;100002.38;5070656;28;20024;-83
2022/07/17 07:09:03;;;;;;;14.30;10.45;;;;;;;25.72;68.74;99991.84;5072676;28;20115;-84
2022/07/17 07:11:29;;;;;;;15.35;10.10;;;;;;;25.90;68.02;99992.34;5073664;28;20398;-84
2022/07/17 07:13:54;;;;;;;12.23;9.85;;;;;;;26.10;68.13;99994.97;5072111;28;20406;-84
2022/07/17 07:16:20;;;;;;;13.95;10.07;;;;;;;26.16;66.76;99976.13;5074427;28;20517;-85
2022/07/17 07:18:46;;;;;;;13.55;9.13;;;;;;;26.32;67.58;99979.56;5073850;28;20048;-85
2022/07/17 07:21:12;;;;;;;11.05;9.48;;;;;;;26.35;67.05;99985.22;5077793;28;20497;-84
2022/07/17 07:23:37;;;;;;;11.13;9.82;;;;;;;26.41;66.71;99971.72;5076788;28;20032;-85
2022/07/17 07:26:03;;;;;;;14.02;10.00;;;;;;;26.41;66.97;99969.81;5074094;28;20024;-87
2022/07/17 07:28:28;;;;;;;11.45;8.68;;;;;;;26.50;67.71;99980.81;5075457;28;20032;-84
2022/07/17 07:30:54;;;;;;;11.30;9.00;;;;;;;26.52;66.70;99974.06;5071578;28;20045;-84
2022/07/17 07:33:19;;;;;;;13.02;9.43;;;;;;;26.75;66.45;99981.75;5066206;28;20140;-86
2022/07/17 07:35:45;;;;;;;11.32;8.77;;;;;;;26.94;66.78;99980.03;5071711;28;20045;-82
2022/07/17 07:38:10;;;;;;;9.75;8.57;;;;;;;26.93;64.70;99986.50;5072471;28;20082;-85
2022/07/17 07:40:36;;;;;;;10.73;8.82;;;;;;;27.08;64.69;99990.13;5068044;28;20111;-82
2022/07/17 07:43:02;;;;;;;11.20;8.57;;;;;;;27.36;64.28;99990.44;5071959;28;20033;-85
2022/07/17 07:45:28;;;;;;;10.52;8.55;;;;;;;27.57;63.85;99985.69;5074380;28;20033;-83
2022/07/17 07:47:54;;;;;;;9.65;8.65;;;;;;;27.62;62.32;99982.13;5070846;28;20375;-85
2022/07/17 07:50:23;;;;;;;15.07;9.57;;;;;;;27.62;60.77;99976.75;5067667;28;20507;-89
2022/07/17 07:52:50;;;;;;;11.80;8.98;;;;;;;27.83;61.47;99961.16;5068241;28;20075;-86
2022/07/17 07:55:16;;;;;;;9.05;8.00;;;;;;;27.99;62.82;99961.75;5069367;28;20502;-84
2022/07/17 07:57:42;;;;;;;9.88;8.88;;;;;;;28.14;61.04;99968.06;5070703;28;20059;-85
2022/07/17 08:00:09;;;;;;;10.63;8.48;;;;;;;28.34;61.40;99957.00;5074701;28;20041;-85
2022/07/17 08:02:35;;;;;;;12.13;8.43;;;;;;;28.40;61.26;99967.72;5076174;28;20146;-86
2022/07/17 08:05:01;;;;;;;10.23;8.25;;;;;;;28.38;60.42;99964.53;5078765;28;20508;-85
2022/07/17 08:07:27;;;;;;;9.68;8.52;;;;;;;28.12;60.32;99959.44;5073524;28;20154;-85
2022/07/17 08:09:53;;;;;;;9.93;8.82;;;;;;;28.14;60.48;99970.75;5075839;28;20029;-87
2022/07/17 08:12:19;;;;;;;12.55;8.60;;;;;;;27.96;58.92;99959.63;5078927;28;20043;-87
2022/07/17 08:14:45;;;;;;;9.88;8.35;;;;;;;27.98;60.35;99956.63;5077923;28;20437;-86
2022/07/17 08:17:10;;;;;;;11.77;8.88;;;;;;;28.05;59.91;99952.50;5077477;28;20044;-86
2022/07/17 08:19:36;;;;;;;10.18;9.18;;;;;;;27.96;60.40;99951.53;5076125;28;20410;-87
2022/07/17 08:22:02;;;;;;;14.15;8.98;;;;;;;27.87;58.89;99955.97;5079072;28;20037;-87
2022/07/17 08:24:27;;;;;;;9.45;8.50;;;;;;;27.83;58.07;99960.31;5082372;28;20060;-89
2022/07/17 08:26:53;;;;;;;11.15;9.07;;;;;;;28.02;57.99;99963.09;5084091;28;20042;-89
2022/07/17 08:29:18;;;;;;;10.90;8.55;;;;;;;28.13;56.92;99963.75;5080273;28;20040;-86
2022/07/17 08:31:44;;;;;;;10.27;8.70;;;;;;;28.21;57.70;99966.63;5081710;28;20406;-87
2022/07/17 08:34:09;;;;;;;12.70;8.93;;;;;;;28.43;57.14;99961.75;5081922;28;20029;-87
2022/07/17 08:36:35;;;;;;;9.93;8.93;;;;;;;28.69;56.60;99959.47;5080620;28;20041;-86
2022/07/17 08:39:02;;;;;;;10.48;9.13;;;;;;;28.70;55.53;99965.69;5077817;28;20448;-86
2022/07/17 08:41:37;;;;;;;11.05;8.68;;;;;;;29.08;54.75;99963.75;5079902;28;20386;-85
2022/07/17 08:44:06;;;;;;;11.10;8.27;;;;;;;29.39;52.69;99959.69;5073199;28;20062;-88
2022/07/17 08:46:38;;;;;;;10.07;8.02;;;;;;;29.55;52.51;99962.94;5074439;28;20028;-84
2022/07/17 08:49:06;;;;;;;8.35;7.40;;;;;;;29.71;53.85;99960.75;5075681;28;20040;-88
2022/07/17 08:51:32;;;;;;;8.82;7.93;;;;;;;30.00;51.08;99956.91;5078658;28;20028;-86
2022/07/17 08:53:58;;;;;;;9.07;8.15;;;;;;;30.33;50.72;99961.38;5066542;28;20403;-84
2022/07/17 08:56:25;;;;;;;9.45;7.93;;;;;;;30.29;49.56;99955.78;5073250;28;20041;-85
2022/07/17 08:58:51;;;;;;;8.75;7.95;;;;;;;30.54;50.42;99952.78;5076145;28;20473;-84
2022/07/17 09:01:19;;;;;;;8.52;7.72;;;;;;;30.75;49.68;99953.94;5073503;28;20028;-84
2022/07/17 09:04:00;;;;;;;8.77;7.15;;;;;;;30.49;48.63;99959.16;5074076;28;20074;-84
2022/07/17 09:06:26;;;;;;;8.73;7.30;;;;;;;30.62;48.77;99962.94;5070761;28;20072;-85
2022/07/17 09:09:06;;;;;;;8.55;7.75;;;;;;;30.33;48.62;99964.91;5074833;28;20032;-83
2022/07/17 09:11:47;;;;;;;10.40;7.40;;;;;;;30.10;48.53;99963.25;5075794;28;20051;-86
2022/07/17 09:14:13;;;;;;;8.80;7.57;;;;;;;30.12;48.84;99958.34;5071280;28;20067;-84
2022/07/17 09:16:52;;;;;;;9.95;7.30;;;;;;;29.83;49.23;99957.53;5074918;28;20028;-84
2022/07/17 09:19:33;;;;;;;8.40;7.53;;;;;;;29.90;48.00;99967.97;5069915;28;20045;-84
2022/07/17 09:22:07;;;;;;;7.80;7.10;;;;;;;30.13;49.63;99970.75;5072959;28;20040;-86
2022/07/17 09:24:49;;;;;;;9.48;8.20;;;;;;;29.58;49.35;99965.06;5071433;28;20454;-85
2022/07/17 09:27:23;;;;;;;9.13;7.80;;;;;;;30.04;49.03;99967.97;5074532;28;20044;-84
2022/07/17 09:30:04;;;;;;;8.57;7.78;;;;;;;30.27;50.14;99965.31;5075079;28;20068;-84
2022/07/17 09:32:38;;;;;;;9.13;7.75;;;;;;;30.40;48.84;99955.53;5072118;28;20079;-85
2022/07/17 09:35:06;;;;;;;11.10;8.10;;;;;;;30.46;50.11;99959.72;5075773;28;20028;-85
2022/07/17 09:37:33;;;;;;;9.02;8.13;;;;;;;30.81;48.52;99957.31;5071612;28;20028;-86
2022/07/17 09:40:00;;;;;;;9.35;8.13;;;;;;;30.89;49.17;99959.31;5073498;28;20420;-84
2022/07/17 09:42:30;;;;;;;9.25;8.00;;;;;;;31.47;49.24;99954.03;5073233;28;20422;-84
2022/07/17 09:45:08;;;;;;;9.98;8.30;;;;;;;31.79;48.57;99945.88;5071368;28;20024;-84
2022/07/17 09:47:35;;;;;;;10.60;8.32;;;;;;;31.75;47.30;99945.66;5071088;28;20024;-83
2022/07/17 09:50:04;;;;;;;9.30;8.35;;;;;;;31.98;48.16;99937.44;5074462;28;20047;-84
2022/07/17 09:52:32;;;;;;;11.77;8.60;;;;;;;32.12;46.54;99931.84;5074153;28;20024;-84
2022/07/17 09:54:59;;;;;;;9.00;8.20;;;;;;;32.36;47.41;99929.81;5073493;28;20478;-84
2022/07/17 09:57:33;;;;;;;9.23;8.32;;;;;;;32.78;47.23;99930.09;5074805;28;20043;-84
2022/07/17 10:00:12;;;;;;;9.57;8.43;;;;;;;32.89;46.78;99923.22;5070748;28;20032;-84
2022/07/17 10:02:40;;;;;;;9.00;8.15;;;;;;;32.96;46.06;99927.38;5072214;28;20044;-85
2022/07/17 10:05:11;;;;;;;8.93;8.13;;;;;;;33.14;46.19;99923.47;5068307;28;20043;-84
2022/07/17 10:07:40;;;;;;;9.65;8.75;;;;;;;33.31;46.53;99924.53;5068675;28;20036;-85
2022/07/17 10:10:08;;;;;;;9.65;8.65;;;;;;;33.11;46.85;99921.41;5070286;28;20074;-84
2022/07/17 10:12:37;;;;;;;13.55;9.75;;;;;;;33.02;46.24;99928.81;5071098;28;20043;-84
2022/07/17 10:15:04;;;;;;;9.65;8.65;;;;;;;32.46;46.86;99927.56;5070737;28;20538;-83
2022/07/17 10:17:29;;;;;;;10.77;8.57;;;;;;;32.76;46.42;99919.56;5070154;28;20067;-84
2022/07/17 10:19:56;;;;;;;9.65;8.68;;;;;;;32.89;45.50;99915.06;5066237;28;20060;-85
2022/07/17 10:22:25;;;;;;;9.90;8.93;;;;;;;33.17;47.04;99919.31;5070091;28;20047;-87
2022/07/17 10:24:53;;;;;;;9.52;8.63;;;;;;;33.44;47.51;99909.94;5068978;28;20029;-87
2022/07/17 10:27:24;;;;;;;13.00;9.73;;;;;;;33.55;45.64;99899.47;5069178;28;20452;-88
2022/07/17 10:30:09;;;;;;;10.38;9.43;;;;;;;33.57;45.86;99907.28;5071343;28;20068;-88
2022/07/17 10:32:35;;;;;;;9.93;8.70;;;;;;;33.81;45.48;99914.06;5072561;28;20079;-87
2022/07/17 10:35:19;;;;;;;9.63;8.70;;;;;;;33.67;45.44;99912.38;5075595;28;20029;-85
2022/07/17 10:37:45;;;;;;;10.75;9.63;;;;;;;33.95;45.39;99916.50;5072790;28;20031;-86
2022/07/17 10:40:11;;;;;;;11.88;9.85;;;;;;;33.54;45.62;99919.66;5076303;28;20020;-85
2022/07/17 10:42:53;;;;;;;10.40;9.25;;;;;;;33.46;45.35;99926.72;5067776;28;20505;-85
2022/07/17 10:45:23;;;;;;;12.43;9.13;;;;;;;33.58;44.72;99923.31;5073577;28;20082;-85
2022/07/17 10:47:51;;;;;;;11.18;8.90;;;;;;;33.49;44.91;99919.81;5075156;28;20032;-84
2022/07/17 10:50:20;;;;;;;10.82;9.70;;;;;;;33.15;44.34;99911.47;5067676;28;20024;-86
2022/07/17 10:52:57;;;;;;;10.35;9.35;;;;;;;33.22;46.31;99918.34;5072066;28;20082;-85
2022/07/17 10:55:22;;;;;;;12.98;10.23;;;;;;;32.82;46.13;99922.09;5072665;28;20029;-88
2022/07/17 10:57:49;;;;;;;10.13;9.23;;;;;;;32.89;47.31;99925.13;5075378;28;20035;-87
2022/07/17 11:00:18;;;;;;;13.27;9.32;;;;;;;33.01;45.57;99921.75;5071516;28;20025;-85
2022/07/17 11:02:44;;;;;;;10.75;9.65;;;;;;;33.02;46.41;99920.66;5075089;28;20039;-87
2022/07/17 11:05:12;;;;;;;10.40;9.40;;;;;;;33.17;46.17;99920.09;5073126;28;20462;-86
2022/07/17 11:07:53;;;;;;;10.15;9.15;;;;;;;33.08;47.07;99919.34;5073248;28;20029;-85
2022/07/17 11:10:19;;;;;;;10.45;9.35;;;;;;;33.00;46.89;99925.59;5069557;28;20109;-86
2022/07/17 11:12:44;;;;;;;11.85;9.13;;;;;;;32.99;45.97;99924.81;5075427;28;20078;-86
2022/07/17 11:15:10;;;;;;;9.93;8.98;;;;;;;33.15;46.96;99927.78;5075475;28;20059;-86
2022/07/17 11:17:36;;;;;;;10.15;9.25;;;;;;;32.82;46.62;99912.03;5072576;28;20029;-84
2022/07/17 11:20:02;;;;;;;10.43;9.38;;;;;;;32.76;47.69;99926.91;5067632;28;20093;-86
2022/07/17 11:22:29;;;;;;;15.43;9.13;;;;;;;32.32;46.80;99919.56;5073559;28;20032;-87